createdAt,value
2019-03-30T00:02:10.067Z,7.00
2019-03-30T00:04:37.228Z,6.90
2019-03-30T00:07:04.559Z,6.80
2019-03-30T00:09:31.785Z,6.70
2019-03-30T00:11:59.175Z,6.70
2019-03-30T00:14:26.513Z,6.60
2019-03-30T00:16:53.741Z,6.60
2019-03-30T00:19:34.449Z,6.60
2019-03-30T00:21:51.302Z,6.70
2019-03-30T00:24:18.440Z,6.70
2019-03-30T00:26:45.593Z,6.70
2019-03-30T00:29:12.897Z,6.70
2019-03-30T00:31:40.138Z,6.70
2019-03-30T00:34:07.565Z,6.60
2019-03-30T00:36:34.816Z,6.60
2019-03-30T00:39:04.003Z,6.50
2019-03-30T00:41:32.170Z,6.50
2019-03-30T00:43:59.413Z,6.50
2019-03-30T00:46:26.615Z,6.40
2019-03-30T00:48:54.435Z,6.50
2019-03-30T00:51:22.075Z,6.60
2019-03-30T00:53:49.305Z,6.70
2019-03-30T00:56:17.005Z,6.70
2019-03-30T00:58:44.504Z,6.70
2019-03-30T01:01:12.726Z,6.70
2019-03-30T01:03:40.581Z,6.70
2019-03-30T01:06:09.059Z,6.70
2019-03-30T01:08:36.286Z,6.70
2019-03-30T01:11:03.934Z,6.70
2019-03-30T01:13:31.094Z,6.60
2019-03-30T01:15:58.772Z,6.50
2019-03-30T01:18:26.124Z,6.50
2019-03-30T01:20:53.500Z,6.50
2019-03-30T01:23:20.899Z,6.50
2019-03-30T01:25:48.051Z,6.50
2019-03-30T01:28:17.124Z,6.40
2019-03-30T01:30:44.325Z,6.40
2019-03-30T01:33:11.581Z,6.40
2019-03-30T01:35:39.120Z,6.30
2019-03-30T01:38:06.604Z,6.30
2019-03-30T01:40:33.868Z,6.20
2019-03-30T01:43:01.128Z,6.10
2019-03-30T01:45:28.333Z,6.20
2019-03-30T01:47:55.672Z,6.10
2019-03-30T01:50:22.948Z,6.00
2019-03-30T01:52:50.212Z,6.00
2019-03-30T01:55:17.553Z,6.00
2019-03-30T01:57:44.805Z,6.00
2019-03-30T02:00:13.088Z,5.90
2019-03-30T02:02:40.361Z,5.90
2019-03-30T02:05:09.003Z,6.00
2019-03-30T02:07:36.165Z,6.00
2019-03-30T02:10:04.308Z,6.10
2019-03-30T02:12:31.487Z,6.10
2019-03-30T02:14:58.667Z,6.10
2019-03-30T02:17:25.929Z,6.20
2019-03-30T02:19:53.159Z,6.10
2019-03-30T02:22:20.434Z,6.10
2019-03-30T02:24:47.567Z,6.10
2019-03-30T02:27:14.844Z,6.10
2019-03-30T02:29:42.107Z,6.10
2019-03-30T02:32:09.561Z,6.00
2019-03-30T02:34:36.810Z,6.00
2019-03-30T02:37:04.112Z,6.00
2019-03-30T02:39:31.388Z,5.90
2019-03-30T02:41:58.672Z,5.90
2019-03-30T02:44:25.870Z,5.90
2019-03-30T02:46:53.141Z,5.90
2019-03-30T02:49:20.637Z,5.80
2019-03-30T02:51:47.944Z,5.80
2019-03-30T02:54:15.381Z,5.80
2019-03-30T02:56:42.653Z,5.70
2019-03-30T02:59:09.950Z,5.70
2019-03-30T03:01:37.403Z,5.70
2019-03-30T03:04:04.758Z,5.60
2019-03-30T03:06:32.045Z,5.60
2019-03-30T03:08:59.193Z,5.60
2019-03-30T03:11:26.504Z,5.50
2019-03-30T03:13:53.797Z,5.60
2019-03-30T03:16:21.122Z,5.70
2019-03-30T03:18:48.378Z,5.70
2019-03-30T03:21:15.907Z,5.70
2019-03-30T03:23:43.116Z,5.70
2019-03-30T03:26:10.617Z,5.80
2019-03-30T03:28:38.088Z,5.80
2019-03-30T03:31:05.275Z,5.80
2019-03-30T03:33:32.589Z,5.80
2019-03-30T03:35:59.961Z,5.80
2019-03-30T03:38:27.221Z,5.70
2019-03-30T03:40:54.465Z,5.70
2019-03-30T03:43:21.855Z,5.70
2019-03-30T03:45:49.149Z,5.70
2019-03-30T03:48:16.310Z,5.70
2019-03-30T03:50:45.648Z,5.60
2019-03-30T03:53:14.480Z,5.60
2019-03-30T03:55:42.162Z,5.70
2019-03-30T03:58:10.432Z,5.70
2019-03-30T04:00:37.977Z,5.70
2019-03-30T04:03:07.077Z,5.60
2019-03-30T04:05:36.283Z,5.60
2019-03-30T04:08:06.869Z,5.60
2019-03-30T04:10:37.313Z,5.60
2019-03-30T04:13:07.376Z,5.60
2019-03-30T04:15:34.763Z,5.50
2019-03-30T04:18:01.987Z,5.40
2019-03-30T04:20:29.281Z,5.40
2019-03-30T04:22:56.475Z,5.30
2019-03-30T04:25:23.634Z,5.10
2019-03-30T04:27:50.812Z,5.00
2019-03-30T04:30:18.041Z,5.00
2019-03-30T04:32:45.322Z,5.00
2019-03-30T04:35:12.606Z,5.10
2019-03-30T04:37:39.857Z,5.10
2019-03-30T04:40:07.146Z,5.10
2019-03-30T04:42:34.409Z,5.20
2019-03-30T04:45:01.730Z,5.30
2019-03-30T04:47:28.940Z,5.20
2019-03-30T04:49:56.104Z,5.30
2019-03-30T04:52:23.347Z,5.20
2019-03-30T04:54:50.592Z,5.20
2019-03-30T04:57:17.813Z,5.20
2019-03-30T04:59:44.989Z,5.20
2019-03-30T05:02:12.200Z,5.20
2019-03-30T05:04:40.512Z,5.20
2019-03-30T05:07:08.099Z,5.30
2019-03-30T05:09:35.369Z,5.30
2019-03-30T05:12:02.603Z,5.30
2019-03-30T05:14:29.974Z,5.30
2019-03-30T05:16:57.641Z,5.30
2019-03-30T05:19:24.873Z,5.30
2019-03-30T05:21:52.085Z,5.30
2019-03-30T05:24:19.243Z,5.40
2019-03-30T05:26:46.481Z,5.50
2019-03-30T05:29:13.651Z,5.50
2019-03-30T05:31:41.093Z,5.50
2019-03-30T05:34:08.273Z,5.50
2019-03-30T05:36:35.445Z,5.60
2019-03-30T05:39:04.052Z,5.60
2019-03-30T05:41:31.261Z,5.60
2019-03-30T05:43:58.533Z,5.70
2019-03-30T05:46:25.889Z,5.70
2019-03-30T05:48:53.104Z,5.70
2019-03-30T05:51:20.626Z,5.70
2019-03-30T05:53:48.042Z,5.70
2019-03-30T05:56:15.412Z,5.90
2019-03-30T05:58:42.605Z,5.90
2019-03-30T06:01:09.808Z,5.90
2019-03-30T06:03:37.082Z,6.00
2019-03-30T06:06:05.584Z,6.10
2019-03-30T06:08:32.803Z,6.30
2019-03-30T06:10:59.940Z,6.50
2019-03-30T06:13:27.160Z,6.70
2019-03-30T06:15:54.399Z,7.00
2019-03-30T06:18:21.832Z,7.30
2019-03-30T06:20:49.018Z,7.50
2019-03-30T06:23:16.278Z,8.10
2019-03-30T06:25:43.505Z,8.60
2019-03-30T06:28:10.651Z,9.20
2019-03-30T06:30:37.839Z,9.80
2019-03-30T06:33:05.092Z,10.40
2019-03-30T06:35:32.211Z,10.70
2019-03-30T06:37:59.404Z,11.10
2019-03-30T06:40:26.608Z,11.00
2019-03-30T06:42:53.868Z,11.10
2019-03-30T06:45:21.034Z,11.40
2019-03-30T06:47:48.218Z,11.20
2019-03-30T06:50:15.741Z,11.10
2019-03-30T06:52:56.692Z,11.50
2019-03-30T06:55:12.340Z,11.80
2019-03-30T06:57:39.792Z,11.70
2019-03-30T07:00:08.096Z,12.00
2019-03-30T07:02:35.916Z,12.60
2019-03-30T07:05:03.898Z,13.10
2019-03-30T07:07:33.354Z,13.60
2019-03-30T07:10:03.381Z,13.90
2019-03-30T07:12:34.391Z,14.00
2019-03-30T07:15:02.316Z,14.30
2019-03-30T07:17:30.165Z,14.80
2019-03-30T07:20:00.712Z,15.20
2019-03-30T07:22:27.892Z,15.90
2019-03-30T07:24:55.108Z,16.30
2019-03-30T07:27:22.356Z,16.70
2019-03-30T07:29:49.552Z,17.10
2019-03-30T07:32:16.780Z,17.20
2019-03-30T07:34:43.994Z,17.10
2019-03-30T07:37:11.438Z,17.30
2019-03-30T07:39:38.870Z,17.80
2019-03-30T07:42:06.167Z,17.40
2019-03-30T07:44:33.316Z,17.40
2019-03-30T07:47:00.817Z,17.70
2019-03-30T07:49:28.181Z,17.80
2019-03-30T07:51:55.416Z,18.10
2019-03-30T07:54:22.693Z,18.70
2019-03-30T07:57:03.857Z,19.00
2019-03-30T07:59:18.988Z,19.40
2019-03-30T08:01:46.148Z,20.00
2019-03-30T08:04:13.899Z,20.60
2019-03-30T08:06:41.368Z,21.00
2019-03-30T08:09:08.885Z,21.20
2019-03-30T08:11:36.026Z,21.00
2019-03-30T08:14:03.447Z,21.00
2019-03-30T08:16:30.793Z,21.20
2019-03-30T08:18:58.690Z,20.80
2019-03-30T08:21:25.903Z,20.70
2019-03-30T08:23:53.060Z,20.20
2019-03-30T08:26:20.401Z,20.10
2019-03-30T08:28:47.690Z,20.40
2019-03-30T08:31:14.844Z,21.00
2019-03-30T08:33:42.119Z,21.70
2019-03-30T08:36:09.283Z,22.10
2019-03-30T08:38:36.436Z,21.70
2019-03-30T08:41:03.564Z,21.80
2019-03-30T08:43:30.798Z,22.60
2019-03-30T08:45:57.966Z,22.40
2019-03-30T08:48:25.199Z,22.70
2019-03-30T08:50:52.463Z,22.60
2019-03-30T08:53:19.684Z,22.70
2019-03-30T08:55:46.868Z,22.90
2019-03-30T08:58:14.080Z,22.80
2019-03-30T09:00:42.088Z,23.10
2019-03-30T09:03:09.652Z,23.20
2019-03-30T09:05:36.964Z,23.00
2019-03-30T09:08:04.521Z,22.90
2019-03-30T09:10:32.033Z,23.00
2019-03-30T09:12:59.291Z,23.30
2019-03-30T09:15:26.496Z,23.50
2019-03-30T09:17:53.674Z,23.40
2019-03-30T09:20:21.124Z,23.10
2019-03-30T09:22:48.379Z,22.80
2019-03-30T09:25:15.515Z,22.60
2019-03-30T09:27:42.747Z,22.80
2019-03-30T09:30:10.768Z,23.00
2019-03-30T09:32:37.966Z,23.10
2019-03-30T09:35:05.613Z,23.50
2019-03-30T09:37:32.841Z,23.60
2019-03-30T09:40:00.159Z,23.40
2019-03-30T09:42:27.608Z,23.90
2019-03-30T09:44:54.767Z,24.10
2019-03-30T09:47:22.001Z,23.40
2019-03-30T09:49:49.139Z,23.80
2019-03-30T09:52:16.316Z,24.20
2019-03-30T09:54:43.585Z,24.60
2019-03-30T09:57:10.809Z,23.90
2019-03-30T09:59:38.013Z,23.60
2019-03-30T10:02:05.346Z,23.00
2019-03-30T10:04:32.601Z,22.70
2019-03-30T10:06:59.856Z,22.20
2019-03-30T10:09:27.108Z,22.40
2019-03-30T10:11:54.373Z,22.40
2019-03-30T10:14:21.595Z,22.70
2019-03-30T10:16:48.887Z,23.40
2019-03-30T10:19:16.126Z,24.10
2019-03-30T10:21:43.393Z,24.50
2019-03-30T10:24:10.850Z,25.10
2019-03-30T10:26:38.521Z,25.10
2019-03-30T10:29:05.832Z,25.30
2019-03-30T10:31:32.973Z,25.40
2019-03-30T10:34:00.111Z,25.50
2019-03-30T10:36:27.269Z,25.40
2019-03-30T10:38:54.412Z,25.70
2019-03-30T10:41:21.568Z,25.60
2019-03-30T10:43:48.761Z,25.30
2019-03-30T10:46:15.892Z,25.30
2019-03-30T10:48:43.046Z,25.10
2019-03-30T10:51:10.196Z,24.80
2019-03-30T10:53:37.329Z,24.50
2019-03-30T10:56:04.460Z,24.50
2019-03-30T10:58:31.619Z,24.40
2019-03-30T11:00:58.785Z,24.50
2019-03-30T11:03:26.024Z,24.30
2019-03-30T11:05:53.224Z,24.60
2019-03-30T11:08:20.373Z,25.50
2019-03-30T11:10:47.535Z,26.10
2019-03-30T11:13:15.214Z,26.10
2019-03-30T11:15:42.359Z,26.20
2019-03-30T11:18:09.925Z,26.50
2019-03-30T11:20:37.079Z,26.40
2019-03-30T11:23:04.255Z,26.40
2019-03-30T11:25:31.430Z,26.10
2019-03-30T11:27:58.711Z,25.90
2019-03-30T11:30:26.025Z,26.00
2019-03-30T11:32:53.330Z,25.90
2019-03-30T11:35:20.492Z,24.80
2019-03-30T11:37:47.621Z,24.10
2019-03-30T11:40:14.867Z,24.10
2019-03-30T11:42:42.089Z,23.90
2019-03-30T11:45:09.608Z,24.30
2019-03-30T11:47:36.886Z,24.00
2019-03-30T11:50:04.494Z,24.50
2019-03-30T11:52:31.702Z,24.70
2019-03-30T11:54:59.543Z,25.20
2019-03-30T11:57:26.825Z,25.20
2019-03-30T11:59:54.070Z,24.70
2019-03-30T12:02:27.797Z,25.30
2019-03-30T12:04:50.715Z,25.30
2019-03-30T12:07:17.904Z,25.50
2019-03-30T12:09:45.120Z,25.60
2019-03-30T12:12:12.740Z,25.50
2019-03-30T12:14:39.898Z,24.80
2019-03-30T12:17:07.873Z,24.50
2019-03-30T12:19:35.042Z,24.70
2019-03-30T12:22:02.271Z,25.00
2019-03-30T12:24:29.515Z,25.50
2019-03-30T12:26:56.701Z,26.10
2019-03-30T12:29:23.922Z,25.70
2019-03-30T12:31:51.169Z,25.40
2019-03-30T12:34:18.389Z,25.40
2019-03-30T12:36:45.624Z,25.60
2019-03-30T12:39:12.906Z,26.00
2019-03-30T12:41:40.273Z,24.90
2019-03-30T12:44:07.913Z,23.50
2019-03-30T12:46:35.177Z,23.50
2019-03-30T12:49:02.493Z,23.40
2019-03-30T12:51:29.697Z,23.80
2019-03-30T12:53:56.829Z,24.20
2019-03-30T12:56:23.968Z,24.20
2019-03-30T12:58:51.857Z,24.10
2019-03-30T13:01:19.084Z,24.40
2019-03-30T13:03:47.252Z,24.60
2019-03-30T13:06:14.557Z,24.10
2019-03-30T13:08:41.720Z,23.80
2019-03-30T13:11:08.901Z,23.10
2019-03-30T13:13:36.531Z,23.60
2019-03-30T13:16:03.825Z,23.60
2019-03-30T13:18:31.336Z,23.90
2019-03-30T13:20:58.507Z,23.90
2019-03-30T13:23:25.708Z,23.70
2019-03-30T13:26:03.358Z,23.90
2019-03-30T13:28:22.010Z,23.50
2019-03-30T13:30:49.633Z,23.20
2019-03-30T13:33:17.852Z,23.50
2019-03-30T13:35:45.286Z,23.90
2019-03-30T13:38:12.456Z,23.30
2019-03-30T13:40:39.620Z,23.30
2019-03-30T13:43:07.356Z,23.00
2019-03-30T13:45:34.529Z,23.50
2019-03-30T13:48:01.687Z,24.20
2019-03-30T13:50:30.973Z,24.50
2019-03-30T13:52:57.929Z,24.20
2019-03-30T13:55:25.072Z,23.60
2019-03-30T13:57:52.224Z,23.90
2019-03-30T14:00:19.356Z,24.40
2019-03-30T14:02:46.911Z,23.70
2019-03-30T14:05:14.340Z,23.10
2019-03-30T14:07:41.640Z,22.80
2019-03-30T14:10:09.808Z,22.40
2019-03-30T14:12:37.277Z,22.50
2019-03-30T14:15:04.894Z,23.00
2019-03-30T14:17:32.057Z,23.30
2019-03-30T14:19:59.253Z,23.20
2019-03-30T14:22:26.371Z,23.10
2019-03-30T14:24:53.565Z,23.10
2019-03-30T14:27:20.711Z,23.30
2019-03-30T14:29:47.877Z,23.10
2019-03-30T14:32:15.065Z,22.70
2019-03-30T14:34:42.338Z,22.80
2019-03-30T14:37:09.664Z,22.60
2019-03-30T14:39:37.103Z,22.60
2019-03-30T14:42:04.328Z,23.10
2019-03-30T14:44:31.793Z,23.50
2019-03-30T14:46:59.025Z,23.40
2019-03-30T14:49:26.162Z,23.10
2019-03-30T14:51:53.532Z,22.80
2019-03-30T14:54:20.701Z,22.30
2019-03-30T14:56:47.826Z,22.00
2019-03-30T14:59:15.041Z,22.00
2019-03-30T15:01:42.265Z,22.10
2019-03-30T15:04:09.599Z,22.10
2019-03-30T15:06:37.085Z,21.80
2019-03-30T15:09:05.552Z,21.50
2019-03-30T15:11:32.723Z,20.90
2019-03-30T15:14:00.051Z,20.40
2019-03-30T15:16:27.191Z,20.10
2019-03-30T15:18:54.381Z,20.10
2019-03-30T15:21:21.601Z,20.20
2019-03-30T15:23:48.855Z,20.00
2019-03-30T15:26:16.034Z,19.90
2019-03-30T15:28:43.562Z,19.80
2019-03-30T15:31:10.717Z,19.70
2019-03-30T15:33:37.845Z,19.70
2019-03-30T15:36:05.234Z,19.60
2019-03-30T15:38:32.497Z,19.40
2019-03-30T15:40:59.999Z,19.40
2019-03-30T15:43:38.084Z,19.40
2019-03-30T15:45:56.583Z,19.40
2019-03-30T15:48:24.159Z,19.30
2019-03-30T15:50:51.978Z,19.30
2019-03-30T15:53:20.036Z,19.20
2019-03-30T15:55:48.114Z,19.10
2019-03-30T15:58:17.541Z,19.10
2019-03-30T16:00:45.704Z,19.10
2019-03-30T16:03:15.985Z,19.10
2019-03-30T16:05:45.308Z,19.10
2019-03-30T16:08:13.586Z,19.00
2019-03-30T16:10:42.433Z,18.80
2019-03-30T16:13:09.948Z,18.70
2019-03-30T16:15:37.152Z,18.70
2019-03-30T16:18:04.454Z,18.60
2019-03-30T16:20:31.604Z,18.50
2019-03-30T16:22:58.739Z,18.50
2019-03-30T16:25:26.081Z,18.40
2019-03-30T16:27:53.251Z,18.30
2019-03-30T16:30:20.532Z,18.20
2019-03-30T16:32:47.835Z,18.10
2019-03-30T16:35:15.364Z,18.10
2019-03-30T16:37:42.688Z,18.10
2019-03-30T16:40:10.261Z,18.00
2019-03-30T16:42:37.484Z,17.90
2019-03-30T16:45:06.638Z,17.80
2019-03-30T16:47:33.814Z,17.80
2019-03-30T16:50:01.266Z,17.70
2019-03-30T16:52:28.940Z,17.60
2019-03-30T16:54:56.095Z,17.50
2019-03-30T16:57:23.395Z,17.40
2019-03-30T16:59:50.673Z,17.40
2019-03-30T17:02:18.184Z,17.30
2019-03-30T17:04:45.378Z,17.20
2019-03-30T17:07:12.913Z,17.10
2019-03-30T17:09:40.167Z,17.10
2019-03-30T17:12:07.360Z,17.00
2019-03-30T17:14:35.110Z,16.90
2019-03-30T17:17:02.531Z,16.80
2019-03-30T17:19:29.863Z,16.80
2019-03-30T17:21:57.139Z,16.70
2019-03-30T17:24:24.708Z,16.60
2019-03-30T17:26:51.961Z,16.60
2019-03-30T17:29:19.167Z,16.60
2019-03-30T17:31:46.405Z,16.60
2019-03-30T17:34:13.581Z,16.50
2019-03-30T17:36:40.778Z,16.50
2019-03-30T17:39:08.292Z,16.50
2019-03-30T17:41:35.613Z,16.40
2019-03-30T17:44:03.144Z,16.40
2019-03-30T17:46:30.374Z,16.30
2019-03-30T17:48:57.796Z,16.20
2019-03-30T17:51:25.060Z,16.20
2019-03-30T17:53:52.321Z,16.20
2019-03-30T17:56:19.684Z,16.10
2019-03-30T17:58:46.892Z,16.10
2019-03-30T18:01:15.744Z,16.00
2019-03-30T18:03:45.339Z,16.00
2019-03-30T18:06:12.503Z,15.90
2019-03-30T18:08:39.761Z,15.80
2019-03-30T18:11:07.008Z,15.80
2019-03-30T18:13:36.743Z,15.70
2019-03-30T18:16:03.572Z,15.70
2019-03-30T18:18:30.752Z,15.60
2019-03-30T18:20:58.945Z,15.60
2019-03-30T18:23:26.192Z,15.60
2019-03-30T18:25:53.419Z,15.40
2019-03-30T18:28:27.114Z,15.50
2019-03-30T18:30:49.784Z,15.50
2019-03-30T18:33:17.000Z,15.40
2019-03-30T18:35:44.305Z,15.40
2019-03-30T18:38:13.094Z,15.30
2019-03-30T18:40:40.705Z,15.30
2019-03-30T18:43:08.626Z,15.40
2019-03-30T18:45:35.901Z,15.40
2019-03-30T18:48:10.879Z,15.30
2019-03-30T18:50:39.858Z,15.20
2019-03-30T18:53:07.304Z,15.10
2019-03-30T18:55:34.493Z,15.00
2019-03-30T18:58:01.781Z,14.90
2019-03-30T19:00:28.953Z,14.90
2019-03-30T19:02:56.127Z,14.80
2019-03-30T19:05:23.303Z,14.80
2019-03-30T19:07:50.509Z,14.70
2019-03-30T19:10:18.008Z,14.60
2019-03-30T19:12:45.252Z,14.60
2019-03-30T19:15:12.636Z,14.50
2019-03-30T19:17:39.871Z,14.60
2019-03-30T19:20:07.433Z,14.60
2019-03-30T19:22:34.724Z,14.40
2019-03-30T19:25:02.945Z,14.40
2019-03-30T19:27:30.324Z,14.40
2019-03-30T19:29:57.569Z,14.30
2019-03-30T19:32:24.880Z,14.10
2019-03-30T19:34:52.043Z,14.00
2019-03-30T19:37:19.196Z,14.00
2019-03-30T19:39:46.482Z,14.00
2019-03-30T19:42:15.848Z,14.00
2019-03-30T19:44:43.036Z,13.90
2019-03-30T19:47:10.417Z,13.90
2019-03-30T19:49:38.457Z,14.00
2019-03-30T19:52:05.938Z,13.90
2019-03-30T19:54:33.264Z,14.00
2019-03-30T19:57:00.653Z,14.00
2019-03-30T19:59:27.832Z,14.00
2019-03-30T20:01:55.015Z,14.00
2019-03-30T20:04:22.308Z,13.90
2019-03-30T20:06:49.496Z,13.90
2019-03-30T20:09:16.712Z,13.80
2019-03-30T20:11:44.033Z,13.80
2019-03-30T20:14:11.275Z,13.80
2019-03-30T20:16:42.015Z,13.80
2019-03-30T20:19:12.591Z,13.70
2019-03-30T20:21:36.989Z,13.60
2019-03-30T20:24:04.171Z,13.40
2019-03-30T20:26:31.679Z,13.20
2019-03-30T20:28:58.916Z,13.20
2019-03-30T20:31:26.113Z,13.20
2019-03-30T20:33:53.304Z,13.40
2019-03-30T20:36:20.951Z,13.50
2019-03-30T20:38:48.224Z,13.50
2019-03-30T20:41:15.482Z,13.50
2019-03-30T20:43:42.800Z,13.60
2019-03-30T20:46:10.073Z,13.60
2019-03-30T20:48:37.336Z,13.50
2019-03-30T20:51:04.672Z,13.50
2019-03-30T20:53:31.985Z,13.60
2019-03-30T20:55:59.223Z,13.70
2019-03-30T20:58:26.448Z,13.60
2019-03-30T21:00:54.616Z,13.50
2019-03-30T21:03:21.840Z,13.50
2019-03-30T21:05:49.551Z,13.50
2019-03-30T21:08:16.792Z,13.50
2019-03-30T21:10:44.332Z,13.50
2019-03-30T21:13:11.589Z,13.50
2019-03-30T21:15:38.908Z,13.30
2019-03-30T21:18:06.113Z,13.20
2019-03-30T21:20:33.596Z,13.00
2019-03-30T21:23:00.779Z,13.00
2019-03-30T21:25:27.941Z,13.10
2019-03-30T21:27:55.097Z,13.00
2019-03-30T21:30:22.520Z,13.10
2019-03-30T21:32:49.681Z,13.20
2019-03-30T21:35:16.917Z,13.20
2019-03-30T21:37:44.047Z,13.20
2019-03-30T21:40:11.503Z,13.20
2019-03-30T21:42:38.774Z,13.20
2019-03-30T21:45:06.667Z,13.10
2019-03-30T21:47:34.073Z,13.00
2019-03-30T21:50:05.500Z,13.00
2019-03-30T21:52:32.864Z,13.00
2019-03-30T21:55:00.253Z,13.00
2019-03-30T21:57:27.550Z,13.10
2019-03-30T22:00:08.735Z,13.00
2019-03-30T22:02:23.914Z,12.90
2019-03-30T22:04:51.197Z,12.80
2019-03-30T22:07:18.537Z,12.80
2019-03-30T22:09:45.960Z,12.90
2019-03-30T22:12:13.589Z,13.00
2019-03-30T22:14:40.853Z,12.90
2019-03-30T22:17:08.281Z,12.90
2019-03-30T22:19:35.615Z,13.00
2019-03-30T22:22:02.938Z,13.00
2019-03-30T22:24:30.105Z,13.00
2019-03-30T22:26:57.365Z,13.00
2019-03-30T22:29:24.650Z,12.80
2019-03-30T22:31:51.862Z,12.70
2019-03-30T22:34:19.048Z,12.60
2019-03-30T22:36:46.294Z,12.50
2019-03-30T22:39:13.502Z,12.50
2019-03-30T22:41:40.716Z,12.40
2019-03-30T22:44:08.217Z,12.30
2019-03-30T22:46:35.377Z,12.30
2019-03-30T22:49:02.535Z,12.20
2019-03-30T22:51:29.819Z,12.00
2019-03-30T22:53:57.073Z,12.10
2019-03-30T22:56:24.270Z,12.10
2019-03-30T22:58:51.535Z,12.00
2019-03-30T23:01:20.041Z,12.00
2019-03-30T23:03:47.194Z,11.90
2019-03-30T23:06:14.502Z,11.90
2019-03-30T23:08:41.631Z,11.80
2019-03-30T23:11:09.685Z,11.80
2019-03-30T23:13:37.123Z,11.80
2019-03-30T23:16:04.425Z,11.80
2019-03-30T23:18:31.976Z,11.80
2019-03-30T23:21:02.120Z,11.80
2019-03-30T23:23:29.308Z,11.70
2019-03-30T23:25:56.495Z,11.70
2019-03-30T23:28:23.666Z,11.60
2019-03-30T23:30:54.404Z,11.70
2019-03-30T23:33:19.956Z,11.70
2019-03-30T23:35:47.309Z,11.70
2019-03-30T23:38:14.622Z,11.70
2019-03-30T23:40:41.856Z,11.70
2019-03-30T23:43:09.023Z,11.60
2019-03-30T23:45:36.272Z,11.60
2019-03-30T23:48:03.468Z,11.50
2019-03-30T23:50:30.712Z,11.50
2019-03-30T23:52:57.849Z,11.30
2019-03-30T23:55:25.273Z,11.30
2019-03-30T23:57:52.494Z,11.30
